THA301 VTBS-VYYY
Flight info
| Callsign | THA301 |
|---|---|
| Flight time | N/A |
| Altitude | 32000 |
| Route | NUNLI1F NUNLI L507 LUDVI ENSIT1A |
| Aircraft | A320/M-SDE3FGHIRWY/LB1 |
Departure
| Time | 2026-05-07 13:32 |
|---|---|
| Airport | Suvarnabhumi Airport (VTBS) |
Arrival
| Time | N/A |
|---|---|
| Airport | Yangon International Airport (VYYY) |
| Time | Latitude | Longitude | Altitude | Speed | Heading |
|---|---|---|---|---|---|
| 2026-05-07 12:34 | 13.68638 | 100.75371 | 8 ft | 0 kts | 284° |
| 2026-05-07 13:16 | 13.68636 | 100.75382 | -19 ft | 3 kts | 284° |
| 2026-05-07 13:16 | 13.68631 | 100.75402 | -13 ft | 3 kts | 283° |
| 2026-05-07 13:16 | 13.68626 | 100.75423 | 9 ft | 3 kts | 282° |
| 2026-05-07 13:16 | 13.68623 | 100.75440 | 8 ft | 3 kts | 290° |
| 2026-05-07 13:17 | 13.68614 | 100.75455 | 10 ft | 3 kts | 334° |
| 2026-05-07 13:17 | 13.68596 | 100.75459 | 9 ft | 3 kts | 4° |
| 2026-05-07 13:17 | 13.68576 | 100.75456 | 11 ft | 3 kts | 14° |
| 2026-05-07 13:17 | 13.68558 | 100.75451 | 10 ft | 2 kts | 15° |
| 2026-05-07 13:18 | 13.68555 | 100.75450 | 10 ft | 0 kts | 15° |
| 2026-05-07 13:22 | 13.68556 | 100.75451 | 10 ft | 1 kts | 15° |
| 2026-05-07 13:22 | 13.68572 | 100.75455 | 11 ft | 5 kts | 14° |
| 2026-05-07 13:22 | 13.68628 | 100.75470 | 9 ft | 12 kts | 14° |
| 2026-05-07 13:23 | 13.68725 | 100.75495 | 8 ft | 15 kts | 14° |
| 2026-05-07 13:23 | 13.68820 | 100.75520 | 8 ft | 13 kts | 16° |
| 2026-05-07 13:23 | 13.68850 | 100.75596 | 8 ft | 14 kts | 104° |
| 2026-05-07 13:23 | 13.68827 | 100.75686 | 8 ft | 10 kts | 104° |
| 2026-05-07 13:24 | 13.68814 | 100.75737 | 8 ft | 0 kts | 104° |
| 2026-05-07 13:28 | 13.68809 | 100.75757 | 8 ft | 6 kts | 105° |
| 2026-05-07 13:29 | 13.68822 | 100.75818 | 8 ft | 13 kts | 34° |
| 2026-05-07 13:29 | 13.68927 | 100.75849 | 8 ft | 18 kts | 15° |
| 2026-05-07 13:29 | 13.69052 | 100.75882 | 8 ft | 19 kts | 14° |
| 2026-05-07 13:29 | 13.69156 | 100.75909 | 8 ft | 11 kts | 14° |
| 2026-05-07 13:30 | 13.69205 | 100.75965 | 7 ft | 12 kts | 88° |
| 2026-05-07 13:30 | 13.69176 | 100.76052 | 9 ft | 14 kts | 127° |
| 2026-05-07 13:30 | 13.69093 | 100.76082 | 7 ft | 13 kts | 185° |
| 2026-05-07 13:30 | 13.69068 | 100.76076 | 7 ft | 0 kts | 195° |
| 2026-05-07 13:31 | 13.69066 | 100.76076 | 7 ft | 1 kts | 195° |
| 2026-05-07 13:31 | 13.68964 | 100.76048 | 9 ft | 43 kts | 194° |
| 2026-05-07 13:32 | 13.68462 | 100.75917 | 10 ft | 103 kts | 194° |
| 2026-05-07 13:32 | 13.67614 | 100.75693 | 7 ft | 149 kts | 194° |
| 2026-05-07 13:32 | 13.66528 | 100.75401 | 328 ft | 162 kts | 194° |
| 2026-05-07 13:32 | 13.65431 | 100.75140 | 904 ft | 163 kts | 183° |
| 2026-05-07 13:33 | 13.64287 | 100.75117 | 1395 ft | 168 kts | 181° |
| 2026-05-07 13:33 | 13.63071 | 100.75125 | 1645 ft | 183 kts | 179° |
| 2026-05-07 13:33 | 13.61714 | 100.75155 | 1808 ft | 208 kts | 178° |
| 2026-05-07 13:33 | 13.60202 | 100.75256 | 2187 ft | 226 kts | 172° |
| 2026-05-07 13:34 | 13.58580 | 100.75597 | 2565 ft | 249 kts | 165° |
| 2026-05-07 13:34 | 13.55137 | 100.76665 | 3926 ft | 264 kts | 163° |
| 2026-05-07 13:34 | 13.53370 | 100.77228 | 4716 ft | 268 kts | 163° |
| 2026-05-07 13:35 | 13.51565 | 100.77784 | 5468 ft | 273 kts | 163° |
| 2026-05-07 13:35 | 13.49737 | 100.78320 | 6297 ft | 274 kts | 166° |
| 2026-05-07 13:35 | 13.47845 | 100.78508 | 6986 ft | 280 kts | 182° |
| 2026-05-07 13:35 | 13.45918 | 100.78121 | 7667 ft | 287 kts | 200° |
| 2026-05-07 13:36 | 13.44213 | 100.77037 | 8327 ft | 294 kts | 224° |
| 2026-05-07 13:36 | 13.43101 | 100.75267 | 9001 ft | 300 kts | 251° |
| 2026-05-07 13:36 | 13.42906 | 100.73133 | 9659 ft | 305 kts | 280° |
| 2026-05-07 13:36 | 13.43399 | 100.70993 | 10137 ft | 315 kts | 285° |
| 2026-05-07 13:37 | 13.43972 | 100.68735 | 10269 ft | 337 kts | 285° |
| 2026-05-07 13:37 | 13.44586 | 100.66347 | 10475 ft | 354 kts | 285° |
| 2026-05-07 13:37 | 13.45220 | 100.63870 | 10961 ft | 360 kts | 285° |
| 2026-05-07 13:37 | 13.46000 | 100.61417 | 11508 ft | 363 kts | 297° |
| 2026-05-07 13:38 | 13.47454 | 100.59305 | 12052 ft | 365 kts | 316° |
| 2026-05-07 13:38 | 13.49527 | 100.57806 | 12597 ft | 366 kts | 336° |
| 2026-05-07 13:38 | 13.51972 | 100.57113 | 13145 ft | 367 kts | 357° |
| 2026-05-07 13:38 | 13.54522 | 100.57108 | 13697 ft | 368 kts | 3° |
| 2026-05-07 13:39 | 13.57061 | 100.57177 | 13954 ft | 357 kts | 3° |
| 2026-05-07 13:39 | 13.59483 | 100.57247 | 14122 ft | 350 kts | 4° |
| 2026-05-07 13:39 | 13.61947 | 100.57324 | 14387 ft | 366 kts | 4° |
| 2026-05-07 13:39 | 13.64535 | 100.57400 | 14682 ft | 375 kts | 2° |
| 2026-05-07 13:40 | 13.67146 | 100.57468 | 15223 ft | 375 kts | 2° |
| 2026-05-07 13:40 | 13.69773 | 100.57537 | 15688 ft | 379 kts | 2° |
| 2026-05-07 13:40 | 13.72430 | 100.57609 | 16167 ft | 382 kts | 3° |
| 2026-05-07 13:40 | 13.75096 | 100.57657 | 16647 ft | 386 kts | 359° |
| 2026-05-07 13:41 | 13.77764 | 100.57248 | 17121 ft | 391 kts | 346° |
| 2026-05-07 13:41 | 13.80307 | 100.56214 | 17615 ft | 395 kts | 332° |
| 2026-05-07 13:41 | 13.82670 | 100.54751 | 18105 ft | 398 kts | 329° |
| 2026-05-07 13:41 | 13.85040 | 100.53254 | 18528 ft | 401 kts | 329° |
| 2026-05-07 13:42 | 13.87425 | 100.51748 | 18948 ft | 404 kts | 329° |
| 2026-05-07 13:42 | 13.89828 | 100.50231 | 19374 ft | 406 kts | 329° |
| 2026-05-07 13:42 | 13.92242 | 100.48709 | 19823 ft | 408 kts | 329° |
| 2026-05-07 13:42 | 13.94523 | 100.46946 | 20255 ft | 412 kts | 319° |
| 2026-05-07 13:43 | 13.96499 | 100.44791 | 20676 ft | 416 kts | 312° |
| 2026-05-07 13:43 | 13.98402 | 100.42531 | 21094 ft | 419 kts | 312° |
| 2026-05-07 13:43 | 14.00318 | 100.40258 | 21525 ft | 421 kts | 312° |
| 2026-05-07 13:43 | 14.02243 | 100.37975 | 21945 ft | 423 kts | 312° |
| 2026-05-07 13:44 | 14.04180 | 100.35679 | 22350 ft | 426 kts | 312° |
| 2026-05-07 13:44 | 14.06131 | 100.33367 | 22729 ft | 429 kts | 312° |
| 2026-05-07 13:44 | 14.08096 | 100.31038 | 23100 ft | 431 kts | 312° |
| 2026-05-07 13:44 | 14.10064 | 100.28703 | 23454 ft | 434 kts | 312° |
| 2026-05-07 13:45 | 14.12023 | 100.26380 | 23759 ft | 436 kts | 312° |
| 2026-05-07 13:45 | 14.14018 | 100.24016 | 24071 ft | 438 kts | 312° |
| 2026-05-07 13:45 | 14.16018 | 100.21647 | 24381 ft | 439 kts | 312° |
| 2026-05-07 13:45 | 14.18028 | 100.19262 | 24692 ft | 441 kts | 312° |
| 2026-05-07 13:46 | 14.20043 | 100.16869 | 25008 ft | 442 kts | 312° |
| 2026-05-07 13:46 | 14.22061 | 100.14472 | 25304 ft | 444 kts | 312° |
| 2026-05-07 13:46 | 14.24084 | 100.12066 | 25601 ft | 445 kts | 312° |
| 2026-05-07 13:46 | 14.26126 | 100.09636 | 25894 ft | 447 kts | 312° |
| 2026-05-07 13:47 | 14.28164 | 100.07211 | 26179 ft | 449 kts | 312° |
| 2026-05-07 13:47 | 14.30213 | 100.04779 | 26461 ft | 450 kts | 312° |
| 2026-05-07 13:47 | 14.32269 | 100.02338 | 26735 ft | 452 kts | 312° |
| 2026-05-07 13:47 | 14.34335 | 99.99882 | 26996 ft | 454 kts | 312° |
| 2026-05-07 13:48 | 14.36382 | 99.97446 | 27268 ft | 455 kts | 312° |
| 2026-05-07 13:48 | 14.38485 | 99.94942 | 27549 ft | 457 kts | 312° |
| 2026-05-07 13:48 | 14.40530 | 99.92497 | 27730 ft | 455 kts | 311° |
| 2026-05-07 13:48 | 14.42599 | 99.90015 | 27905 ft | 457 kts | 312° |
| 2026-05-07 13:49 | 14.44684 | 99.87529 | 28097 ft | 459 kts | 312° |
| 2026-05-07 13:49 | 14.46779 | 99.85035 | 28347 ft | 461 kts | 312° |
| 2026-05-07 13:49 | 14.48891 | 99.82522 | 28620 ft | 463 kts | 312° |
| 2026-05-07 13:49 | 14.51009 | 99.80002 | 28863 ft | 466 kts | 312° |
| 2026-05-07 13:50 | 14.53134 | 99.77469 | 29113 ft | 468 kts | 312° |
| 2026-05-07 13:50 | 14.55264 | 99.74926 | 29378 ft | 469 kts | 312° |
| 2026-05-07 13:50 | 14.57400 | 99.72377 | 29742 ft | 469 kts | 312° |
| 2026-05-07 13:50 | 14.59526 | 99.69839 | 30106 ft | 467 kts | 312° |
| 2026-05-07 13:51 | 14.61654 | 99.67300 | 30445 ft | 466 kts | 312° |
| 2026-05-07 13:51 | 14.63774 | 99.64767 | 30761 ft | 466 kts | 312° |
| 2026-05-07 13:51 | 14.65891 | 99.62238 | 31092 ft | 465 kts | 312° |
| 2026-05-07 13:51 | 14.68004 | 99.59713 | 31432 ft | 463 kts | 312° |
| 2026-05-07 13:52 | 14.69397 | 99.58045 | 31654 ft | 463 kts | 312° |
| 2026-05-07 13:52 | 14.71504 | 99.55521 | 31841 ft | 466 kts | 312° |
| 2026-05-07 13:52 | 14.73640 | 99.52963 | 31896 ft | 472 kts | 312° |
| 2026-05-07 13:53 | 14.78698 | 99.46900 | 31891 ft | 484 kts | 312° |
| 2026-05-07 13:53 | 14.82406 | 99.42456 | 31891 ft | 490 kts | 312° |
| 2026-05-07 13:54 | 14.86852 | 99.37113 | 31901 ft | 495 kts | 311° |
| 2026-05-07 13:54 | 14.91245 | 99.31601 | 31898 ft | 498 kts | 310° |
| 2026-05-07 13:55 | 14.95575 | 99.26025 | 31899 ft | 496 kts | 310° |
| 2026-05-07 13:55 | 14.99928 | 99.20444 | 31914 ft | 499 kts | 310° |
| 2026-05-07 13:56 | 15.04326 | 99.14873 | 31918 ft | 502 kts | 310° |
| 2026-05-07 13:56 | 15.08754 | 99.09269 | 31916 ft | 502 kts | 310° |
| 2026-05-07 13:56 | 15.10912 | 99.06526 | 31920 ft | 481 kts | 310° |
| 2026-05-07 13:57 | 15.12980 | 99.03893 | 31924 ft | 463 kts | 310° |
| 2026-05-07 13:57 | 15.17016 | 98.98750 | 31928 ft | 466 kts | 310° |
| 2026-05-07 13:58 | 15.18961 | 98.96278 | 31932 ft | 472 kts | 310° |
| 2026-05-07 14:00 | 15.21668 | 98.92835 | 31936 ft | 480 kts | 310° |
| 2026-05-07 14:01 | 15.25929 | 98.87416 | 31935 ft | 489 kts | 310° |
| 2026-05-07 14:01 | 15.30233 | 98.81930 | 31936 ft | 494 kts | 310° |
| 2026-05-07 14:02 | 15.34580 | 98.76375 | 31934 ft | 497 kts | 310° |
| 2026-05-07 14:02 | 15.38827 | 98.70959 | 31927 ft | 500 kts | 310° |
| 2026-05-07 14:03 | 15.43096 | 98.65495 | 31931 ft | 502 kts | 310° |
| 2026-05-07 14:03 | 15.47223 | 98.60170 | 31914 ft | 485 kts | 308° |
| 2026-05-07 14:04 | 15.50741 | 98.54362 | 31916 ft | 469 kts | 301° |
| 2026-05-07 14:04 | 15.54006 | 98.48592 | 31896 ft | 459 kts | 301° |
| 2026-05-07 14:05 | 15.57212 | 98.42939 | 31898 ft | 451 kts | 301° |
| 2026-05-07 14:05 | 15.60382 | 98.37383 | 31898 ft | 444 kts | 301° |
| 2026-05-07 14:06 | 15.63520 | 98.31903 | 31877 ft | 438 kts | 302° |
| 2026-05-07 14:06 | 15.66587 | 98.26534 | 31879 ft | 432 kts | 302° |
| 2026-05-07 14:07 | 15.69625 | 98.21204 | 31879 ft | 427 kts | 301° |
| 2026-05-07 14:07 | 15.72625 | 98.15923 | 31873 ft | 422 kts | 301° |
| 2026-05-07 14:08 | 15.75588 | 98.10708 | 31873 ft | 416 kts | 301° |
| 2026-05-07 14:08 | 15.78472 | 98.05617 | 31863 ft | 398 kts | 301° |
| 2026-05-07 14:09 | 15.81256 | 98.00716 | 31865 ft | 403 kts | 302° |
| 2026-05-07 14:09 | 15.82727 | 97.98192 | 31865 ft | 415 kts | 302° |
| 2026-05-07 14:09 | 15.84244 | 97.95585 | 31865 ft | 426 kts | 302° |
| 2026-05-07 14:09 | 15.85784 | 97.92911 | 31863 ft | 437 kts | 301° |
| 2026-05-07 14:10 | 15.87348 | 97.90173 | 31863 ft | 446 kts | 301° |
| 2026-05-07 14:10 | 15.90187 | 97.85157 | 31863 ft | 460 kts | 301° |
| 2026-05-07 14:11 | 15.92777 | 97.80560 | 31860 ft | 471 kts | 301° |
| 2026-05-07 14:11 | 15.95439 | 97.75833 | 31860 ft | 479 kts | 301° |
| 2026-05-07 14:12 | 15.98189 | 97.70962 | 31854 ft | 485 kts | 301° |
| 2026-05-07 14:12 | 16.01014 | 97.65968 | 31854 ft | 489 kts | 301° |
| 2026-05-07 14:13 | 16.03753 | 97.61130 | 31855 ft | 492 kts | 301° |
| 2026-05-07 14:13 | 16.06629 | 97.56033 | 31853 ft | 495 kts | 301° |
| 2026-05-07 14:14 | 16.09440 | 97.51044 | 31852 ft | 497 kts | 301° |
| 2026-05-07 14:14 | 16.12339 | 97.45910 | 31401 ft | 482 kts | 301° |
| 2026-05-07 14:14 | 16.13673 | 97.43532 | 30978 ft | 476 kts | 301° |
| 2026-05-07 14:15 | 16.15106 | 97.40985 | 30477 ft | 473 kts | 301° |
| 2026-05-07 14:15 | 16.16449 | 97.38591 | 30002 ft | 470 kts | 300° |
| 2026-05-07 14:15 | 16.17732 | 97.36286 | 29472 ft | 468 kts | 301° |
| 2026-05-07 14:15 | 16.19167 | 97.33730 | 28889 ft | 465 kts | 301° |
| 2026-05-07 14:16 | 16.20498 | 97.31371 | 28379 ft | 462 kts | 301° |
| 2026-05-07 14:16 | 16.21825 | 97.29026 | 27838 ft | 460 kts | 301° |
| 2026-05-07 14:16 | 16.23102 | 97.26772 | 27367 ft | 457 kts | 300° |
| 2026-05-07 14:16 | 16.24496 | 97.24299 | 26845 ft | 455 kts | 300° |
| 2026-05-07 14:17 | 16.25806 | 97.21967 | 26383 ft | 452 kts | 300° |
| 2026-05-07 14:17 | 16.27005 | 97.19826 | 25918 ft | 451 kts | 300° |
| 2026-05-07 14:17 | 16.28343 | 97.17435 | 25420 ft | 449 kts | 300° |
| 2026-05-07 14:17 | 16.29619 | 97.15155 | 24951 ft | 447 kts | 300° |
| 2026-05-07 14:18 | 16.30889 | 97.12891 | 24566 ft | 444 kts | 300° |
| 2026-05-07 14:18 | 16.32089 | 97.10751 | 24242 ft | 440 kts | 300° |
| 2026-05-07 14:18 | 16.33373 | 97.08457 | 24127 ft | 429 kts | 300° |
| 2026-05-07 14:18 | 16.34637 | 97.06199 | 24041 ft | 419 kts | 300° |
| 2026-05-07 14:19 | 16.35844 | 97.04059 | 23949 ft | 410 kts | 302° |
| 2026-05-07 14:19 | 16.37234 | 97.02166 | 23861 ft | 402 kts | 314° |
| 2026-05-07 14:19 | 16.38964 | 97.00662 | 23769 ft | 392 kts | 328° |
| 2026-05-07 14:19 | 16.40890 | 96.99543 | 23682 ft | 382 kts | 333° |
| 2026-05-07 14:20 | 16.42915 | 96.98470 | 23586 ft | 373 kts | 334° |
| 2026-05-07 14:20 | 16.44834 | 96.97478 | 23312 ft | 362 kts | 334° |
| 2026-05-07 14:20 | 16.46698 | 96.96523 | 22827 ft | 357 kts | 334° |
| 2026-05-07 14:20 | 16.48585 | 96.95561 | 22312 ft | 354 kts | 334° |
| 2026-05-07 14:21 | 16.50391 | 96.94638 | 21831 ft | 350 kts | 334° |
| 2026-05-07 14:21 | 16.51100 | 96.94274 | 21639 ft | 348 kts | 334° |
| 2026-05-07 14:21 | 16.52151 | 96.93747 | 21245 ft | 344 kts | 338° |
| 2026-05-07 14:21 | 16.54221 | 96.92824 | 20541 ft | 340 kts | 335° |
| 2026-05-07 14:22 | 16.56168 | 96.91829 | 19953 ft | 339 kts | 333° |
| 2026-05-07 14:22 | 16.58143 | 96.90761 | 19422 ft | 336 kts | 332° |
| 2026-05-07 14:22 | 16.59922 | 96.89788 | 18996 ft | 332 kts | 332° |
| 2026-05-07 14:22 | 16.61658 | 96.88843 | 18519 ft | 330 kts | 332° |
| 2026-05-07 14:23 | 16.63454 | 96.87878 | 18083 ft | 326 kts | 333° |
| 2026-05-07 14:23 | 16.64375 | 96.87388 | 17824 ft | 324 kts | 333° |
| 2026-05-07 14:23 | 16.66533 | 96.86250 | 17208 ft | 320 kts | 333° |
| 2026-05-07 14:23 | 16.68024 | 96.85472 | 16797 ft | 317 kts | 333° |
| 2026-05-07 14:24 | 16.69442 | 96.84733 | 16432 ft | 313 kts | 334° |
| 2026-05-07 14:24 | 16.70494 | 96.84186 | 16186 ft | 310 kts | 334° |
| 2026-05-07 14:24 | 16.71735 | 96.83554 | 15905 ft | 305 kts | 334° |
| 2026-05-07 14:24 | 16.73490 | 96.82647 | 15514 ft | 299 kts | 334° |
| 2026-05-07 14:25 | 16.74309 | 96.82221 | 15342 ft | 296 kts | 334° |
| 2026-05-07 14:25 | 16.75596 | 96.81557 | 15066 ft | 291 kts | 334° |
| 2026-05-07 14:25 | 16.77402 | 96.80612 | 14717 ft | 290 kts | 334° |
| 2026-05-07 14:25 | 16.79192 | 96.79668 | 14508 ft | 286 kts | 334° |
| 2026-05-07 14:26 | 16.80955 | 96.78736 | 14281 ft | 282 kts | 334° |
| 2026-05-07 14:26 | 16.82701 | 96.77818 | 14052 ft | 279 kts | 334° |
| 2026-05-07 14:26 | 16.83844 | 96.77219 | 13906 ft | 277 kts | 335° |
| 2026-05-07 14:26 | 16.84518 | 96.76872 | 13823 ft | 275 kts | 335° |
| 2026-05-07 14:27 | 16.85132 | 96.76584 | 13738 ft | 274 kts | 339° |
| 2026-05-07 14:27 | 16.85906 | 96.76293 | 13590 ft | 273 kts | 341° |
| 2026-05-07 14:27 | 16.86314 | 96.76141 | 13504 ft | 273 kts | 341° |
| 2026-05-07 14:27 | 16.86882 | 96.75942 | 13381 ft | 273 kts | 340° |
| 2026-05-07 14:28 | 16.87478 | 96.75727 | 13263 ft | 278 kts | 340° |
| 2026-05-07 14:28 | 16.88111 | 96.75454 | 13186 ft | 290 kts | 338° |
| 2026-05-07 14:28 | 16.89026 | 96.75102 | 12982 ft | 308 kts | 341° |
| 2026-05-07 14:28 | 16.89753 | 96.74825 | 12847 ft | 323 kts | 340° |
| 2026-05-07 14:30 | 16.89968 | 96.74743 | 12820 ft | 323 kts | 339° |
| 2026-05-07 14:30 | 16.90851 | 96.74425 | 12576 ft | 338 kts | 343° |
| 2026-05-07 14:30 | 16.91759 | 96.74169 | 12344 ft | 354 kts | 349° |
| 2026-05-07 14:30 | 16.94080 | 96.73704 | 12499 ft | 367 kts | 347° |
| 2026-05-07 14:31 | 16.95536 | 96.73166 | 12699 ft | 375 kts | 333° |
| 2026-05-07 14:31 | 16.96515 | 96.72524 | 12848 ft | 380 kts | 322° |
| 2026-05-07 14:31 | 16.98369 | 96.71004 | 12741 ft | 398 kts | 329° |